Terminal Aerodrome Forecast
Issued by NWS Portland, OR

Current Version | Previous Version | Text Only | Print | Product List | Glossary On
Versions: 1 2 3 4 5 6 7 8 9 10 11 12 13 14
000
FTUS46 KPQR 302320
TAFSLE
TAF
KSLE 302320Z 0100/0124 01010KT P6SM FEW040
     FM010400 36005KT P6SM SKC
     FM011600 01010KT P6SM SKC
     FM011900 01013G21KT P6SM SKC=

USA.gov is the U.S. government's official web portal to all federal, state and local government web resources and services.